Rechercher aéroport 
image banner adimage banner adimage banner ad
image banner ad

4CL1 - Lyon

Situé à Rancho Santa Margarita, United States

ICAO - 4CL1, IATA -

Données fournies par Airmate  

Information générale

Coordonnées: N33°36'46" W117°35'29"
Élévation : 898 feet MSL.
Variation magnétique : 14° East
Voir autres Aéroports à California

Données opérationnelles

Special qualification required
Heure actuelle UTC:
Heure actuelle locale:
METAR: KSNA 292353Z 23006KT 10SM FEW055 FEW080 FEW150 SCT250 27/16 A2985 RMK AO2 SLP107 T02670161 10289 20244 56010
TAF: KSNA 292325Z 3000/3024 22010KT P6SM FEW010 SCT200 FM300200 VRB05KT P6SM FEW200 TEMPO 3009/3011 BKN010 FM301100 VRB04KT 5SM BR BKN009 FM301500 VRB04KT P6SM SCT010 SCT150 FM302000 22008KT P6SM FEW010 SCT150
Voir NOTAMs / SUP AIP / TFR affectant cet aéroport [VIEW]
Fréquences de communication: [VIEW]

Pistes:

Coordonnées de l'aéroport

Adresse: Rancho Santa Margarita United States

Vue satellite de 4CL1